sensor_id;sensor_type;location;lat;lon;timestamp;P1;durP1;ratioP1;P2;durP2;ratioP2
69511;SDS011;56709;52.036;4.644;2022-08-21T00:02:18;9.10;;;4.07;;
69511;SDS011;56709;52.036;4.644;2022-08-21T00:04:46;9.77;;;4.22;;
69511;SDS011;56709;52.036;4.644;2022-08-21T00:07:12;8.98;;;3.60;;
69511;SDS011;56709;52.036;4.644;2022-08-21T00:09:38;9.38;;;3.78;;
69511;SDS011;56709;52.036;4.644;2022-08-21T00:12:04;7.50;;;3.70;;
69511;SDS011;56709;52.036;4.644;2022-08-21T00:14:30;11.30;;;3.93;;
69511;SDS011;56709;52.036;4.644;2022-08-21T00:16:56;15.40;;;4.13;;
69511;SDS011;56709;52.036;4.644;2022-08-21T00:19:21;9.77;;;3.72;;
69511;SDS011;56709;52.036;4.644;2022-08-21T00:21:50;9.30;;;3.40;;
69511;SDS011;56709;52.036;4.644;2022-08-21T00:24:19;8.38;;;3.70;;
69511;SDS011;56709;52.036;4.644;2022-08-21T00:26:44;7.63;;;3.72;;
69511;SDS011;56709;52.036;4.644;2022-08-21T00:29:10;11.35;;;4.32;;
69511;SDS011;56709;52.036;4.644;2022-08-21T00:31:36;11.23;;;4.03;;
69511;SDS011;56709;52.036;4.644;2022-08-21T00:34:04;11.25;;;3.85;;
69511;SDS011;56709;52.036;4.644;2022-08-21T00:36:30;11.65;;;4.35;;
69511;SDS011;56709;52.036;4.644;2022-08-21T00:38:56;9.75;;;3.67;;
69511;SDS011;56709;52.036;4.644;2022-08-21T00:41:21;8.48;;;3.90;;
69511;SDS011;56709;52.036;4.644;2022-08-21T00:43:48;10.77;;;4.20;;
69511;SDS011;56709;52.036;4.644;2022-08-21T00:46:14;11.10;;;3.83;;
69511;SDS011;56709;52.036;4.644;2022-08-21T00:48:39;8.07;;;3.65;;
69511;SDS011;56709;52.036;4.644;2022-08-21T00:51:10;12.00;;;3.83;;
69511;SDS011;56709;52.036;4.644;2022-08-21T00:53:40;12.45;;;3.60;;
69511;SDS011;56709;52.036;4.644;2022-08-21T00:56:07;10.30;;;3.30;;
69511;SDS011;56709;52.036;4.644;2022-08-21T00:58:34;13.32;;;4.03;;
69511;SDS011;56709;52.036;4.644;2022-08-21T01:01:01;12.20;;;3.50;;
69511;SDS011;56709;52.036;4.644;2022-08-21T01:03:26;8.73;;;3.72;;
69511;SDS011;56709;52.036;4.644;2022-08-21T01:05:52;10.18;;;3.83;;
69511;SDS011;56709;52.036;4.644;2022-08-21T01:08:18;7.93;;;3.50;;
69511;SDS011;56709;52.036;4.644;2022-08-21T01:10:44;9.65;;;3.53;;
69511;SDS011;56709;52.036;4.644;2022-08-21T01:13:11;11.80;;;3.80;;
69511;SDS011;56709;52.036;4.644;2022-08-21T01:15:40;15.02;;;4.35;;
69511;SDS011;56709;52.036;4.644;2022-08-21T01:18:08;10.45;;;3.50;;
69511;SDS011;56709;52.036;4.644;2022-08-21T01:20:35;13.88;;;4.55;;
69511;SDS011;56709;52.036;4.644;2022-08-21T01:23:02;13.48;;;5.20;;
69511;SDS011;56709;52.036;4.644;2022-08-21T01:25:29;16.77;;;4.57;;
69511;SDS011;56709;52.036;4.644;2022-08-21T01:27:55;10.85;;;3.92;;
69511;SDS011;56709;52.036;4.644;2022-08-21T01:30:22;11.43;;;3.60;;
69511;SDS011;56709;52.036;4.644;2022-08-21T01:32:49;8.45;;;4.43;;
69511;SDS011;56709;52.036;4.644;2022-08-21T01:35:16;11.63;;;4.43;;
69511;SDS011;56709;52.036;4.644;2022-08-21T01:37:43;13.50;;;4.90;;
69511;SDS011;56709;52.036;4.644;2022-08-21T01:40:09;13.73;;;4.82;;
69511;SDS011;56709;52.036;4.644;2022-08-21T01:42:36;17.73;;;4.25;;
69511;SDS011;56709;52.036;4.644;2022-08-21T01:45:02;16.88;;;5.07;;
69511;SDS011;56709;52.036;4.644;2022-08-21T01:47:29;9.45;;;4.55;;
69511;SDS011;56709;52.036;4.644;2022-08-21T01:49:54;11.95;;;4.60;;
69511;SDS011;56709;52.036;4.644;2022-08-21T01:52:20;10.32;;;4.30;;
69511;SDS011;56709;52.036;4.644;2022-08-21T01:54:45;10.38;;;4.05;;
69511;SDS011;56709;52.036;4.644;2022-08-21T01:57:11;11.13;;;5.00;;
69511;SDS011;56709;52.036;4.644;2022-08-21T01:59:37;11.82;;;5.25;;
69511;SDS011;56709;52.036;4.644;2022-08-21T02:02:03;13.90;;;4.43;;
69511;SDS011;56709;52.036;4.644;2022-08-21T02:04:29;13.65;;;4.50;;
69511;SDS011;56709;52.036;4.644;2022-08-21T02:06:55;11.07;;;3.97;;
69511;SDS011;56709;52.036;4.644;2022-08-21T02:09:21;11.63;;;4.75;;
69511;SDS011;56709;52.036;4.644;2022-08-21T02:11:46;21.17;;;4.57;;
69511;SDS011;56709;52.036;4.644;2022-08-21T02:14:13;12.90;;;4.55;;
69511;SDS011;56709;52.036;4.644;2022-08-21T02:16:40;14.32;;;5.13;;
69511;SDS011;56709;52.036;4.644;2022-08-21T02:19:07;13.20;;;4.22;;
69511;SDS011;56709;52.036;4.644;2022-08-21T02:21:33;10.63;;;4.47;;
69511;SDS011;56709;52.036;4.644;2022-08-21T02:23:58;15.57;;;5.57;;
69511;SDS011;56709;52.036;4.644;2022-08-21T02:26:24;8.65;;;3.88;;
69511;SDS011;56709;52.036;4.644;2022-08-21T02:28:49;12.43;;;5.15;;
69511;SDS011;56709;52.036;4.644;2022-08-21T02:31:15;10.38;;;4.40;;
69511;SDS011;56709;52.036;4.644;2022-08-21T02:33:40;12.45;;;4.93;;
69511;SDS011;56709;52.036;4.644;2022-08-21T02:36:06;13.63;;;4.90;;
69511;SDS011;56709;52.036;4.644;2022-08-21T02:38:33;10.10;;;4.90;;
69511;SDS011;56709;52.036;4.644;2022-08-21T02:41:02;13.73;;;4.63;;
69511;SDS011;56709;52.036;4.644;2022-08-21T02:43:29;12.68;;;4.90;;
69511;SDS011;56709;52.036;4.644;2022-08-21T02:45:55;14.75;;;5.22;;
69511;SDS011;56709;52.036;4.644;2022-08-21T02:50:51;14.05;;;5.00;;
69511;SDS011;56709;52.036;4.644;2022-08-21T02:53:19;11.65;;;4.88;;
69511;SDS011;56709;52.036;4.644;2022-08-21T02:55:45;14.30;;;5.40;;
69511;SDS011;56709;52.036;4.644;2022-08-21T02:58:14;11.18;;;4.95;;
69511;SDS011;56709;52.036;4.644;2022-08-21T03:00:41;12.55;;;5.57;;
69511;SDS011;56709;52.036;4.644;2022-08-21T03:03:07;13.10;;;5.38;;
69511;SDS011;56709;52.036;4.644;2022-08-21T03:05:33;13.25;;;5.03;;
69511;SDS011;56709;52.036;4.644;2022-08-21T03:08:00;11.75;;;4.65;;
69511;SDS011;56709;52.036;4.644;2022-08-21T03:12:52;13.50;;;4.83;;
69511;SDS011;56709;52.036;4.644;2022-08-21T03:15:19;12.18;;;4.95;;
69511;SDS011;56709;52.036;4.644;2022-08-21T03:17:46;11.68;;;5.32;;
69511;SDS011;56709;52.036;4.644;2022-08-21T03:20:12;13.68;;;5.15;;
69511;SDS011;56709;52.036;4.644;2022-08-21T03:22:39;14.25;;;5.10;;
69511;SDS011;56709;52.036;4.644;2022-08-21T03:25:05;12.77;;;5.18;;
69511;SDS011;56709;52.036;4.644;2022-08-21T03:27:34;15.18;;;4.95;;
69511;SDS011;56709;52.036;4.644;2022-08-21T03:30:00;10.27;;;4.50;;
69511;SDS011;56709;52.036;4.644;2022-08-21T03:32:25;12.15;;;4.97;;
69511;SDS011;56709;52.036;4.644;2022-08-21T03:34:51;13.70;;;4.53;;
69511;SDS011;56709;52.036;4.644;2022-08-21T03:37:16;11.95;;;4.78;;
69511;SDS011;56709;52.036;4.644;2022-08-21T03:39:42;17.67;;;4.70;;
69511;SDS011;56709;52.036;4.644;2022-08-21T03:42:08;10.25;;;4.05;;
69511;SDS011;56709;52.036;4.644;2022-08-21T03:44:34;12.35;;;5.38;;
69511;SDS011;56709;52.036;4.644;2022-08-21T03:47:00;17.40;;;5.53;;
69511;SDS011;56709;52.036;4.644;2022-08-21T03:49:26;17.77;;;4.70;;
69511;SDS011;56709;52.036;4.644;2022-08-21T03:51:51;9.35;;;4.30;;
69511;SDS011;56709;52.036;4.644;2022-08-21T03:54:17;10.48;;;4.20;;
69511;SDS011;56709;52.036;4.644;2022-08-21T03:56:43;15.27;;;4.25;;
69511;SDS011;56709;52.036;4.644;2022-08-21T03:59:08;16.13;;;3.83;;
69511;SDS011;56709;52.036;4.644;2022-08-21T04:01:33;12.93;;;3.90;;
69511;SDS011;56709;52.036;4.644;2022-08-21T04:03:59;10.50;;;3.47;;
69511;SDS011;56709;52.036;4.644;2022-08-21T04:06:24;10.10;;;3.90;;
69511;SDS011;56709;52.036;4.644;2022-08-21T04:08:51;14.45;;;4.03;;
69511;SDS011;56709;52.036;4.644;2022-08-21T04:11:17;13.02;;;4.53;;
69511;SDS011;56709;52.036;4.644;2022-08-21T04:13:42;12.00;;;4.10;;
69511;SDS011;56709;52.036;4.644;2022-08-21T04:16:07;15.50;;;4.15;;
69511;SDS011;56709;52.036;4.644;2022-08-21T04:18:34;9.50;;;3.65;;
69511;SDS011;56709;52.036;4.644;2022-08-21T04:21:00;13.05;;;3.75;;
69511;SDS011;56709;52.036;4.644;2022-08-21T04:23:26;9.82;;;3.45;;
69511;SDS011;56709;52.036;4.644;2022-08-21T04:25:53;13.20;;;4.15;;
69511;SDS011;56709;52.036;4.644;2022-08-21T04:28:19;10.68;;;3.45;;
69511;SDS011;56709;52.036;4.644;2022-08-21T04:30:45;8.60;;;3.23;;
69511;SDS011;56709;52.036;4.644;2022-08-21T04:33:11;20.33;;;4.25;;
69511;SDS011;56709;52.036;4.644;2022-08-21T04:35:36;17.77;;;4.35;;
69511;SDS011;56709;52.036;4.644;2022-08-21T04:38:02;12.52;;;3.38;;
69511;SDS011;56709;52.036;4.644;2022-08-21T04:40:27;11.85;;;3.70;;
69511;SDS011;56709;52.036;4.644;2022-08-21T04:42:57;9.32;;;3.67;;
69511;SDS011;56709;52.036;4.644;2022-08-21T04:45:27;13.25;;;3.60;;
69511;SDS011;56709;52.036;4.644;2022-08-21T04:48:13;13.02;;;4.03;;
69511;SDS011;56709;52.036;4.644;2022-08-21T04:50:41;19.13;;;3.78;;
69511;SDS011;56709;52.036;4.644;2022-08-21T04:53:18;15.40;;;3.92;;
69511;SDS011;56709;52.036;4.644;2022-08-21T04:55:47;15.18;;;3.90;;
69511;SDS011;56709;52.036;4.644;2022-08-21T04:58:13;14.13;;;3.90;;
69511;SDS011;56709;52.036;4.644;2022-08-21T05:00:40;15.25;;;4.20;;
69511;SDS011;56709;52.036;4.644;2022-08-21T05:03:06;14.55;;;3.88;;
69511;SDS011;56709;52.036;4.644;2022-08-21T05:05:32;13.98;;;4.40;;
69511;SDS011;56709;52.036;4.644;2022-08-21T05:07:59;18.65;;;4.72;;
69511;SDS011;56709;52.036;4.644;2022-08-21T05:10:25;13.70;;;4.85;;
69511;SDS011;56709;52.036;4.644;2022-08-21T05:12:51;14.00;;;4.40;;
69511;SDS011;56709;52.036;4.644;2022-08-21T05:15:16;12.40;;;4.57;;
69511;SDS011;56709;52.036;4.644;2022-08-21T05:17:42;16.70;;;4.57;;
69511;SDS011;56709;52.036;4.644;2022-08-21T05:20:09;14.90;;;4.47;;
69511;SDS011;56709;52.036;4.644;2022-08-21T05:25:00;18.03;;;6.27;;
69511;SDS011;56709;52.036;4.644;2022-08-21T05:27:26;15.27;;;5.25;;
69511;SDS011;56709;52.036;4.644;2022-08-21T05:29:54;16.75;;;5.80;;
69511;SDS011;56709;52.036;4.644;2022-08-21T05:32:20;19.15;;;5.30;;
69511;SDS011;56709;52.036;4.644;2022-08-21T05:34:45;17.77;;;5.28;;
69511;SDS011;56709;52.036;4.644;2022-08-21T05:37:11;16.88;;;5.93;;
69511;SDS011;56709;52.036;4.644;2022-08-21T05:39:37;20.50;;;4.85;;
69511;SDS011;56709;52.036;4.644;2022-08-21T05:42:02;12.00;;;4.97;;
69511;SDS011;56709;52.036;4.644;2022-08-21T05:44:28;14.57;;;5.55;;
69511;SDS011;56709;52.036;4.644;2022-08-21T05:46:53;15.13;;;5.13;;
69511;SDS011;56709;52.036;4.644;2022-08-21T05:49:19;17.58;;;6.03;;
69511;SDS011;56709;52.036;4.644;2022-08-21T05:51:44;15.23;;;5.07;;
69511;SDS011;56709;52.036;4.644;2022-08-21T05:54:10;22.08;;;6.70;;
69511;SDS011;56709;52.036;4.644;2022-08-21T05:56:36;12.38;;;5.20;;
69511;SDS011;56709;52.036;4.644;2022-08-21T05:59:02;15.15;;;5.10;;
69511;SDS011;56709;52.036;4.644;2022-08-21T06:01:27;11.88;;;4.68;;
69511;SDS011;56709;52.036;4.644;2022-08-21T06:03:53;16.60;;;4.43;;
69511;SDS011;56709;52.036;4.644;2022-08-21T06:06:19;12.43;;;5.20;;
69511;SDS011;56709;52.036;4.644;2022-08-21T06:08:44;22.42;;;5.60;;
69511;SDS011;56709;52.036;4.644;2022-08-21T06:11:10;15.05;;;4.75;;
69511;SDS011;56709;52.036;4.644;2022-08-21T06:13:36;11.68;;;5.15;;
69511;SDS011;56709;52.036;4.644;2022-08-21T06:16:03;13.57;;;5.43;;
69511;SDS011;56709;52.036;4.644;2022-08-21T06:18:31;17.63;;;5.40;;
69511;SDS011;56709;52.036;4.644;2022-08-21T06:21:00;14.27;;;4.72;;
69511;SDS011;56709;52.036;4.644;2022-08-21T06:23:25;14.40;;;5.07;;
69511;SDS011;56709;52.036;4.644;2022-08-21T06:25:51;11.20;;;5.22;;
69511;SDS011;56709;52.036;4.644;2022-08-21T06:28:16;18.30;;;4.65;;
69511;SDS011;56709;52.036;4.644;2022-08-21T06:30:42;13.40;;;5.03;;
69511;SDS011;56709;52.036;4.644;2022-08-21T06:33:07;18.73;;;5.28;;
69511;SDS011;56709;52.036;4.644;2022-08-21T06:35:33;11.90;;;4.88;;
69511;SDS011;56709;52.036;4.644;2022-08-21T06:37:59;20.95;;;5.30;;
69511;SDS011;56709;52.036;4.644;2022-08-21T06:40:28;13.50;;;5.80;;
69511;SDS011;56709;52.036;4.644;2022-08-21T06:42:54;13.68;;;5.35;;
69511;SDS011;56709;52.036;4.644;2022-08-21T06:45:20;14.25;;;5.53;;
69511;SDS011;56709;52.036;4.644;2022-08-21T06:47:46;19.35;;;5.97;;
69511;SDS011;56709;52.036;4.644;2022-08-21T06:50:11;13.35;;;4.13;;
69511;SDS011;56709;52.036;4.644;2022-08-21T06:52:38;14.07;;;5.30;;
69511;SDS011;56709;52.036;4.644;2022-08-21T06:55:04;12.07;;;4.10;;
69511;SDS011;56709;52.036;4.644;2022-08-21T06:57:31;12.68;;;4.47;;
69511;SDS011;56709;52.036;4.644;2022-08-21T06:59:56;19.08;;;5.97;;
69511;SDS011;56709;52.036;4.644;2022-08-21T07:02:22;11.35;;;4.47;;
69511;SDS011;56709;52.036;4.644;2022-08-21T07:04:47;15.77;;;4.32;;
69511;SDS011;56709;52.036;4.644;2022-08-21T07:07:13;13.95;;;4.10;;
69511;SDS011;56709;52.036;4.644;2022-08-21T07:09:38;13.38;;;4.00;;
69511;SDS011;56709;52.036;4.644;2022-08-21T07:12:04;18.35;;;4.50;;
69511;SDS011;56709;52.036;4.644;2022-08-21T07:14:29;9.85;;;3.25;;
69511;SDS011;56709;52.036;4.644;2022-08-21T07:16:55;12.45;;;4.05;;
69511;SDS011;56709;52.036;4.644;2022-08-21T07:19:20;15.90;;;3.85;;
69511;SDS011;56709;52.036;4.644;2022-08-21T07:21:46;16.02;;;3.92;;
69511;SDS011;56709;52.036;4.644;2022-08-21T07:24:11;14.77;;;3.65;;
69511;SDS011;56709;52.036;4.644;2022-08-21T07:26:37;6.68;;;3.03;;
69511;SDS011;56709;52.036;4.644;2022-08-21T07:29:02;13.48;;;3.60;;
69511;SDS011;56709;52.036;4.644;2022-08-21T07:31:28;12.10;;;3.53;;
69511;SDS011;56709;52.036;4.644;2022-08-21T07:33:53;12.50;;;3.47;;
69511;SDS011;56709;52.036;4.644;2022-08-21T07:36:19;8.00;;;3.83;;
69511;SDS011;56709;52.036;4.644;2022-08-21T07:38:45;10.93;;;3.35;;
69511;SDS011;56709;52.036;4.644;2022-08-21T07:41:15;12.10;;;3.80;;
69511;SDS011;56709;52.036;4.644;2022-08-21T07:43:41;11.93;;;3.72;;
69511;SDS011;56709;52.036;4.644;2022-08-21T07:46:07;11.88;;;3.33;;
69511;SDS011;56709;52.036;4.644;2022-08-21T07:48:32;9.45;;;3.20;;
69511;SDS011;56709;52.036;4.644;2022-08-21T07:50:58;13.15;;;3.22;;
69511;SDS011;56709;52.036;4.644;2022-08-21T07:53:28;16.48;;;3.92;;
69511;SDS011;56709;52.036;4.644;2022-08-21T07:55:56;13.23;;;3.30;;
69511;SDS011;56709;52.036;4.644;2022-08-21T07:58:22;10.82;;;3.35;;
69511;SDS011;56709;52.036;4.644;2022-08-21T08:00:47;10.40;;;3.55;;
69511;SDS011;56709;52.036;4.644;2022-08-21T08:03:13;15.25;;;4.03;;
69511;SDS011;56709;52.036;4.644;2022-08-21T08:05:38;13.10;;;3.28;;
69511;SDS011;56709;52.036;4.644;2022-08-21T08:08:04;17.05;;;4.03;;
69511;SDS011;56709;52.036;4.644;2022-08-21T08:10:30;15.95;;;4.47;;
69511;SDS011;56709;52.036;4.644;2022-08-21T08:12:55;12.27;;;3.90;;
69511;SDS011;56709;52.036;4.644;2022-08-21T08:15:22;9.27;;;3.35;;
69511;SDS011;56709;52.036;4.644;2022-08-21T08:17:53;12.90;;;3.33;;
69511;SDS011;56709;52.036;4.644;2022-08-21T08:20:19;10.48;;;3.35;;
69511;SDS011;56709;52.036;4.644;2022-08-21T08:22:46;15.48;;;4.20;;
69511;SDS011;56709;52.036;4.644;2022-08-21T08:25:12;13.97;;;3.93;;
69511;SDS011;56709;52.036;4.644;2022-08-21T08:27:38;11.82;;;3.25;;
69511;SDS011;56709;52.036;4.644;2022-08-21T08:30:04;8.77;;;3.13;;
69511;SDS011;56709;52.036;4.644;2022-08-21T08:34:59;12.80;;;3.00;;
69511;SDS011;56709;52.036;4.644;2022-08-21T08:37:25;9.50;;;3.00;;
69511;SDS011;56709;52.036;4.644;2022-08-21T08:39:50;9.97;;;3.20;;
69511;SDS011;56709;52.036;4.644;2022-08-21T08:42:27;12.90;;;3.63;;
69511;SDS011;56709;52.036;4.644;2022-08-21T08:44:55;11.63;;;3.45;;
69511;SDS011;56709;52.036;4.644;2022-08-21T08:47:23;10.32;;;3.00;;
69511;SDS011;56709;52.036;4.644;2022-08-21T08:49:55;10.63;;;2.85;;
69511;SDS011;56709;52.036;4.644;2022-08-21T08:52:29;10.10;;;3.13;;
69511;SDS011;56709;52.036;4.644;2022-08-21T08:55:04;11.20;;;2.97;;
69511;SDS011;56709;52.036;4.644;2022-08-21T08:57:35;13.13;;;3.55;;
69511;SDS011;56709;52.036;4.644;2022-08-21T09:00:04;6.85;;;3.60;;
69511;SDS011;56709;52.036;4.644;2022-08-21T09:02:33;15.52;;;4.82;;
69511;SDS011;56709;52.036;4.644;2022-08-21T09:04:59;9.77;;;3.40;;
69511;SDS011;56709;52.036;4.644;2022-08-21T09:10:05;11.63;;;3.70;;
69511;SDS011;56709;52.036;4.644;2022-08-21T09:13:14;13.98;;;4.00;;
69511;SDS011;56709;52.036;4.644;2022-08-21T09:26:26;10.07;;;3.30;;
69511;SDS011;56709;52.036;4.644;2022-08-21T09:28:56;10.02;;;2.55;;
69511;SDS011;56709;52.036;4.644;2022-08-21T09:31:25;5.32;;;2.15;;
69511;SDS011;56709;52.036;4.644;2022-08-21T09:34:03;6.93;;;2.35;;
69511;SDS011;56709;52.036;4.644;2022-08-21T09:36:37;9.55;;;2.30;;
69511;SDS011;56709;52.036;4.644;2022-08-21T09:39:05;6.70;;;2.75;;
69511;SDS011;56709;52.036;4.644;2022-08-21T09:41:32;9.52;;;1.83;;
69511;SDS011;56709;52.036;4.644;2022-08-21T09:43:59;5.25;;;1.67;;
69511;SDS011;56709;52.036;4.644;2022-08-21T09:46:26;8.70;;;2.03;;
69511;SDS011;56709;52.036;4.644;2022-08-21T09:48:52;8.27;;;1.60;;
69511;SDS011;56709;52.036;4.644;2022-08-21T09:51:21;5.97;;;1.42;;
69511;SDS011;56709;52.036;4.644;2022-08-21T09:53:55;13.35;;;2.83;;
69511;SDS011;56709;52.036;4.644;2022-08-21T09:56:31;11.85;;;2.53;;
69511;SDS011;56709;52.036;4.644;2022-08-21T09:59:30;5.43;;;2.05;;
69511;SDS011;56709;52.036;4.644;2022-08-21T10:01:58;8.73;;;2.20;;
69511;SDS011;56709;52.036;4.644;2022-08-21T10:04:31;9.50;;;2.25;;
69511;SDS011;56709;52.036;4.644;2022-08-21T10:07:11;7.32;;;1.80;;
69511;SDS011;56709;52.036;4.644;2022-08-21T10:09:39;6.13;;;1.58;;
69511;SDS011;56709;52.036;4.644;2022-08-21T10:12:13;5.20;;;1.67;;
69511;SDS011;56709;52.036;4.644;2022-08-21T10:14:51;7.75;;;1.50;;
69511;SDS011;56709;52.036;4.644;2022-08-21T10:17:28;9.18;;;1.95;;
69511;SDS011;56709;52.036;4.644;2022-08-21T10:20:02;8.13;;;2.03;;
69511;SDS011;56709;52.036;4.644;2022-08-21T10:27:32;7.77;;;2.00;;
69511;SDS011;56709;52.036;4.644;2022-08-21T10:30:13;8.55;;;1.67;;
69511;SDS011;56709;52.036;4.644;2022-08-21T10:35:40;5.30;;;1.58;;
69511;SDS011;56709;52.036;4.644;2022-08-21T10:43:34;11.27;;;2.20;;
69511;SDS011;56709;52.036;4.644;2022-08-21T10:46:29;6.38;;;1.70;;
69511;SDS011;56709;52.036;4.644;2022-08-21T10:49:10;6.23;;;1.97;;
69511;SDS011;56709;52.036;4.644;2022-08-21T10:57:05;8.25;;;1.70;;
69511;SDS011;56709;52.036;4.644;2022-08-21T10:59:47;6.78;;;1.73;;
69511;SDS011;56709;52.036;4.644;2022-08-21T11:02:22;7.28;;;1.60;;
69511;SDS011;56709;52.036;4.644;2022-08-21T11:05:16;7.07;;;1.77;;
69511;SDS011;56709;52.036;4.644;2022-08-21T11:07:55;6.78;;;1.40;;
69511;SDS011;56709;52.036;4.644;2022-08-21T11:10:26;8.00;;;1.70;;
69511;SDS011;56709;52.036;4.644;2022-08-21T11:13:17;7.25;;;1.60;;
69511;SDS011;56709;52.036;4.644;2022-08-21T11:21:47;12.80;;;1.85;;
69511;SDS011;56709;52.036;4.644;2022-08-21T11:30:06;8.50;;;1.98;;
69511;SDS011;56709;52.036;4.644;2022-08-21T11:43:17;5.03;;;1.38;;
69511;SDS011;56709;52.036;4.644;2022-08-21T11:46:12;7.30;;;1.80;;
69511;SDS011;56709;52.036;4.644;2022-08-21T11:48:59;5.18;;;1.40;;
69511;SDS011;56709;52.036;4.644;2022-08-21T11:51:27;7.18;;;1.67;;
69511;SDS011;56709;52.036;4.644;2022-08-21T11:54:23;6.20;;;1.30;;
69511;SDS011;56709;52.036;4.644;2022-08-21T11:56:58;4.88;;;1.45;;
69511;SDS011;56709;52.036;4.644;2022-08-21T11:59:31;6.07;;;1.30;;
69511;SDS011;56709;52.036;4.644;2022-08-21T12:02:00;4.93;;;1.42;;
69511;SDS011;56709;52.036;4.644;2022-08-21T12:04:27;10.90;;;1.70;;
69511;SDS011;56709;52.036;4.644;2022-08-21T12:06:56;4.95;;;1.48;;
69511;SDS011;56709;52.036;4.644;2022-08-21T12:12:12;5.88;;;1.40;;
69511;SDS011;56709;52.036;4.644;2022-08-21T12:14:41;5.75;;;1.40;;
69511;SDS011;56709;52.036;4.644;2022-08-21T12:19:45;5.10;;;1.55;;
69511;SDS011;56709;52.036;4.644;2022-08-21T12:22:12;4.73;;;1.30;;
69511;SDS011;56709;52.036;4.644;2022-08-21T12:24:40;4.43;;;1.30;;
69511;SDS011;56709;52.036;4.644;2022-08-21T12:27:28;6.05;;;1.30;;
69511;SDS011;56709;52.036;4.644;2022-08-21T12:29:56;5.28;;;1.17;;
69511;SDS011;56709;52.036;4.644;2022-08-21T12:32:42;3.65;;;1.08;;
69511;SDS011;56709;52.036;4.644;2022-08-21T12:43:02;3.97;;;1.20;;
69511;SDS011;56709;52.036;4.644;2022-08-21T12:45:33;6.22;;;1.20;;
69511;SDS011;56709;52.036;4.644;2022-08-21T12:48:10;6.22;;;1.40;;
69511;SDS011;56709;52.036;4.644;2022-08-21T12:50:53;7.40;;;1.30;;
69511;SDS011;56709;52.036;4.644;2022-08-21T12:53:32;8.18;;;1.27;;
69511;SDS011;56709;52.036;4.644;2022-08-21T13:32:57;6.07;;;1.42;;
69511;SDS011;56709;52.036;4.644;2022-08-21T13:45:32;5.53;;;1.80;;
69511;SDS011;56709;52.036;4.644;2022-08-21T14:18:25;4.35;;;1.40;;
69511;SDS011;56709;52.036;4.644;2022-08-21T14:30:59;9.35;;;1.65;;
69511;SDS011;56709;52.036;4.644;2022-08-21T14:33:37;7.22;;;1.70;;
69511;SDS011;56709;52.036;4.644;2022-08-21T14:36:02;4.70;;;1.20;;
69511;SDS011;56709;52.036;4.644;2022-08-21T14:38:28;6.87;;;2.00;;
69511;SDS011;56709;52.036;4.644;2022-08-21T14:40:55;7.60;;;1.58;;
69511;SDS011;56709;52.036;4.644;2022-08-21T14:43:26;6.22;;;1.73;;
69511;SDS011;56709;52.036;4.644;2022-08-21T14:45:53;6.65;;;1.77;;
69511;SDS011;56709;52.036;4.644;2022-08-21T14:48:19;5.88;;;2.08;;
69511;SDS011;56709;52.036;4.644;2022-08-21T14:50:44;8.07;;;1.27;;
69511;SDS011;56709;52.036;4.644;2022-08-21T14:53:09;7.57;;;1.87;;
69511;SDS011;56709;52.036;4.644;2022-08-21T14:55:36;6.60;;;1.60;;
69511;SDS011;56709;52.036;4.644;2022-08-21T14:58:21;5.28;;;1.73;;
69511;SDS011;56709;52.036;4.644;2022-08-21T15:00:47;10.43;;;1.90;;
69511;SDS011;56709;52.036;4.644;2022-08-21T15:03:14;10.48;;;2.10;;
69511;SDS011;56709;52.036;4.644;2022-08-21T15:05:39;4.70;;;1.60;;
69511;SDS011;56709;52.036;4.644;2022-08-21T15:08:04;9.47;;;1.80;;
69511;SDS011;56709;52.036;4.644;2022-08-21T15:10:30;8.03;;;1.93;;
69511;SDS011;56709;52.036;4.644;2022-08-21T15:12:57;9.63;;;2.17;;
69511;SDS011;56709;52.036;4.644;2022-08-21T15:15:23;8.77;;;1.90;;
69511;SDS011;56709;52.036;4.644;2022-08-21T15:17:48;8.73;;;2.87;;
69511;SDS011;56709;52.036;4.644;2022-08-21T15:20:14;5.97;;;1.63;;
69511;SDS011;56709;52.036;4.644;2022-08-21T15:22:39;5.57;;;2.00;;
69511;SDS011;56709;52.036;4.644;2022-08-21T15:25:05;11.00;;;2.20;;
69511;SDS011;56709;52.036;4.644;2022-08-21T15:27:31;6.77;;;2.43;;
69511;SDS011;56709;52.036;4.644;2022-08-21T15:29:56;7.50;;;1.70;;
69511;SDS011;56709;52.036;4.644;2022-08-21T15:32:26;7.13;;;1.90;;
69511;SDS011;56709;52.036;4.644;2022-08-21T15:34:54;7.80;;;1.85;;
69511;SDS011;56709;52.036;4.644;2022-08-21T15:37:21;6.47;;;2.15;;
69511;SDS011;56709;52.036;4.644;2022-08-21T15:42:13;9.60;;;1.67;;
69511;SDS011;56709;52.036;4.644;2022-08-21T15:44:39;7.50;;;2.07;;
69511;SDS011;56709;52.036;4.644;2022-08-21T15:47:06;9.90;;;2.30;;
69511;SDS011;56709;52.036;4.644;2022-08-21T15:49:33;9.75;;;2.88;;
69511;SDS011;56709;52.036;4.644;2022-08-21T15:51:59;12.00;;;2.17;;
69511;SDS011;56709;52.036;4.644;2022-08-21T15:54:24;6.83;;;1.90;;
69511;SDS011;56709;52.036;4.644;2022-08-21T15:56:49;7.43;;;2.37;;
69511;SDS011;56709;52.036;4.644;2022-08-21T15:59:16;10.87;;;2.10;;
69511;SDS011;56709;52.036;4.644;2022-08-21T16:01:44;5.63;;;1.92;;
69511;SDS011;56709;52.036;4.644;2022-08-21T16:04:13;7.55;;;2.13;;
69511;SDS011;56709;52.036;4.644;2022-08-21T16:06:42;7.57;;;2.03;;
69511;SDS011;56709;52.036;4.644;2022-08-21T16:09:08;8.50;;;2.03;;
69511;SDS011;56709;52.036;4.644;2022-08-21T16:11:33;7.70;;;2.07;;
69511;SDS011;56709;52.036;4.644;2022-08-21T16:13:59;10.50;;;2.13;;
69511;SDS011;56709;52.036;4.644;2022-08-21T16:16:24;7.30;;;2.00;;
69511;SDS011;56709;52.036;4.644;2022-08-21T16:18:50;4.73;;;1.73;;
69511;SDS011;56709;52.036;4.644;2022-08-21T16:21:16;7.00;;;2.13;;
69511;SDS011;56709;52.036;4.644;2022-08-21T16:23:42;8.07;;;2.13;;
69511;SDS011;56709;52.036;4.644;2022-08-21T16:26:08;10.13;;;2.50;;
69511;SDS011;56709;52.036;4.644;2022-08-21T16:28:37;5.53;;;2.05;;
69511;SDS011;56709;52.036;4.644;2022-08-21T16:31:03;6.35;;;2.40;;
69511;SDS011;56709;52.036;4.644;2022-08-21T16:33:29;10.97;;;2.70;;
69511;SDS011;56709;52.036;4.644;2022-08-21T16:35:57;6.72;;;1.98;;
69511;SDS011;56709;52.036;4.644;2022-08-21T16:38:24;6.60;;;2.40;;
69511;SDS011;56709;52.036;4.644;2022-08-21T16:40:50;7.57;;;2.55;;
69511;SDS011;56709;52.036;4.644;2022-08-21T16:43:16;6.63;;;1.83;;
69511;SDS011;56709;52.036;4.644;2022-08-21T16:45:42;7.03;;;2.13;;
69511;SDS011;56709;52.036;4.644;2022-08-21T16:48:08;9.40;;;2.75;;
69511;SDS011;56709;52.036;4.644;2022-08-21T16:50:34;7.43;;;2.20;;
69511;SDS011;56709;52.036;4.644;2022-08-21T16:53:00;6.20;;;1.98;;
69511;SDS011;56709;52.036;4.644;2022-08-21T16:55:25;6.97;;;2.40;;
69511;SDS011;56709;52.036;4.644;2022-08-21T16:57:52;9.30;;;2.13;;
69511;SDS011;56709;52.036;4.644;2022-08-21T17:00:18;8.27;;;2.13;;
69511;SDS011;56709;52.036;4.644;2022-08-21T17:02:45;7.43;;;2.60;;
69511;SDS011;56709;52.036;4.644;2022-08-21T17:05:12;8.52;;;2.30;;
69511;SDS011;56709;52.036;4.644;2022-08-21T17:07:38;8.23;;;2.37;;
69511;SDS011;56709;52.036;4.644;2022-08-21T17:10:04;10.23;;;3.33;;
69511;SDS011;56709;52.036;4.644;2022-08-21T17:12:31;7.63;;;2.50;;
69511;SDS011;56709;52.036;4.644;2022-08-21T17:14:57;5.50;;;1.90;;
69511;SDS011;56709;52.036;4.644;2022-08-21T17:17:29;9.32;;;2.50;;
69511;SDS011;56709;52.036;4.644;2022-08-21T17:19:54;7.50;;;2.20;;
69511;SDS011;56709;52.036;4.644;2022-08-21T17:22:20;7.87;;;2.80;;
69511;SDS011;56709;52.036;4.644;2022-08-21T17:24:45;9.53;;;3.00;;
69511;SDS011;56709;52.036;4.644;2022-08-21T17:27:10;9.95;;;2.88;;
69511;SDS011;56709;52.036;4.644;2022-08-21T17:29:38;9.95;;;2.78;;
69511;SDS011;56709;52.036;4.644;2022-08-21T17:32:08;5.07;;;2.20;;
69511;SDS011;56709;52.036;4.644;2022-08-21T17:34:34;10.60;;;2.60;;